Hines Creek, Canada
Current Conditions -  °F | °C
As of 7:00 PM on Wednesday 26 Nov 2014 (Local Time) from CYPE Reporting Station
Light Snow Light Snow  
Wind Chill: -8°   Ceiling: 1000
Heat Index: 10°   Visibility: 12mi
Dew Point:   Wind: 18mph
Humidity: 79%   Direction: 20°NNE
Pressure: 30.22"   Gusts: 28mph
Location:  56.23°N, 118.6°W
Report Text: CYPE 270200Z 02016G24KT 12SM -SN DRSN OVC010 M12/M15 A3022 RMK SC8 SLP281
Loading
Personal Weather Stations






























Interactive Weather Map New forecast layout! Learn more

10-Day Weather Forecast

Advertisements
Track Severe Weather on mobile